logo
Rechercher aéroport 
image banner adimage banner adimage banner ad
image banner ad

OPKH - Khuzdar

Situé à Khuzdar, Pakistan

ICAO - OPKH, IATA - KDD

Données fournies par Airmate  

Information générale

Coordonnées: N27°47'34" E66°38'35"
Élévation : 4012 feet MSL.
 
Voir autres Aéroports à Balochistan

Données opérationnelles

Special qualification required
Heure actuelle UTC:
Heure actuelle locale:
Météo à : - ( 0 km )
METAR: PAPM 282018Z AUTO 11023G27KT 10SM SCT021 08/04 A2969 RMK AO2 PK WND 10027/2016
Voir NOTAMs / SUP AIP / TFR affectant cet aéroport [VIEW]
Fréquences de communication: [VIEW]

Pistes:

Coordonnées de l'aéroport

Adresse: Khuzdar Pakistan

Vue satellite de OPKH